Data for 06/13/2013

Time Sea-Level Adjusted Pressure Absolute Pressure Temperature Relative Humidity Dew Point   
(mb) (inHg) (mb) (inHg) (C) (F) (%) (C) (F)
00:05 1015 29.97 844 24.92 16.5 61.7 43 3.9 39.1
00:10 1015 29.97 844 24.92 16.5 61.7 43 3.9 39
00:15 1015 29.97 844 24.92 16.5 61.7 43 3.9 39.1
00:20 1015 29.97 844 24.92 16.7 62 42 3.7 38.7
00:25 1015 29.97 844 24.92 16.8 62.2 42 4 39.1
00:30 1015 29.97 844 24.92 16.8 62.3 41 3.8 38.8
00:35 1015 29.97 845 24.95 16.9 62.4 41 3.7 38.7
00:40 1016 30 845 24.95 16.9 62.5 43 4.3 39.7
00:45 1015 29.97 844 24.92 17 62.5 42 4 39.2
00:50 1015 29.97 844 24.92 16.9 62.5 42 4 39.2
00:55 1015 29.97 844 24.92 16.9 62.5 43 4.3 39.7
01:00 1015 29.97 845 24.95 16.9 62.3 43 4.2 39.6
01:05 1016 30 845 24.95 16.8 62.2 44 4.5 40.1
01:10 1015 29.97 844 24.92 16.7 62 45 4.8 40.7
01:15 1015 29.97 844 24.92 16.4 61.6 46 4.9 40.8
01:20 1015 29.97 844 24.92 16.4 61.6 45 4.6 40.3
01:25 1015 29.97 845 24.95 16.6 61.8 44 4.4 39.9
01:30 1016 30 845 24.95 16.5 61.8 43 4 39.3
01:35 1016 30 845 24.95 16.6 61.8 45 4.6 40.3
01:40 1016 30 845 24.95 16.4 61.5 45 4.7 40.4
01:45 1016 30 845 24.95 16.3 61.3 47 5.1 41.1
01:50 1015 29.97 845 24.95 16.1 60.9 51 6 42.8
01:55 1015 29.97 845 24.95 15.4 59.7 54 6.3 43.3
02:00 1015 29.97 845 24.95 15 59 55 6 42.8
02:05 1015 29.97 845 24.95 14.9 58.8 56 6.2 43.2
02:10 1015 29.97 845 24.95 14.9 58.7 56 6.1 43
02:15 1015 29.97 845 24.95 14.8 58.6 56 6.2 43.2
02:20 1015 29.97 845 24.95 14.6 58.3 58 6.5 43.6
02:25 1015 29.97 845 24.95 14.3 57.8 60 6.8 44.3
02:30 1015 29.97 845 24.95 14.1 57.4 62 6.9 44.5
02:35 1015 29.97 845 24.95 14 57.2 63 7 44.6
02:40 1015 29.97 845 24.95 14 57.1 62 6.9 44.5
02:45 1015 29.97 845 24.95 14 57.1 63 7.1 44.8
02:50 1016 30 845 24.95 13.8 56.9 64 7.2 44.9
02:55 1016 30 845 24.95 13.7 56.6 65 7.3 45.2
03:00 1016 30 845 24.95 13.4 56.1 67 7.4 45.4
03:05 1016 30 845 24.95 13.1 55.5 68 7.4 45.3
03:10 1016 30 845 24.95 12.8 55.1 69 7.4 45.3
03:15 1016 30 845 24.95 12.7 54.9 69 7.2 45
03:20 1016 30 845 24.95 12.8 55 69 7.3 45.1
03:25 1016 30 845 24.95 12.7 54.8 70 7.3 45.1
03:30 1016 30 845 24.95 12.7 54.8 69 7.3 45.1
03:35 1016 30 845 24.95 12.7 54.9 69 7.3 45.2
03:40 1016 30 845 24.95 12.7 54.8 69 7.2 45
03:45 1016 30 845 24.95 12.7 54.8 71 7.5 45.5
03:50 1016 30 845 24.95 12.6 54.8 70 7.3 45.1
03:55 1015 29.97 845 24.95 12.6 54.6 70 7.4 45.2
04:00 1016 30 845 24.95 12.6 54.7 70 7.4 45.3
04:05 1016 30 845 24.95 12.8 55 70 7.4 45.3
04:10 1016 30 845 24.95 13 55.3 69 7.4 45.4
04:15 1016 30 845 24.95 13.2 55.7 68 7.5 45.4
04:20 1016 30 845 24.95 13.1 55.6 69 7.7 45.9
04:25 1016 30 845 24.95 13.1 55.6 68 7.5 45.4
04:30 1016 30 845 24.95 13.2 55.7 68 7.5 45.5
04:35 1016 30 845 24.95 13.2 55.7 69 7.7 45.9
04:40 1016 30 845 24.95 13.1 55.5 71 8 46.3
04:45 1016 30 845 24.95 13 55.4 73 8.4 47.1
04:50 1016 30 845 24.95 12.8 55 75 8.4 47.2
04:55 1016 30 845 24.95 12.6 54.6 76 8.4 47.2
05:00 1016 30 845 24.95 12.4 54.4 79 8.8 47.9
05:05 1016 30 845 24.95 12.1 53.7 80 8.7 47.6
05:10 1016 30 845 24.95 11.8 53.3 80 8.5 47.3
05:15 1016 30 845 24.95 11.9 53.3 79 8.4 47.2
05:20 1016 30 845 24.95 11.8 53.3 79 8.4 47
05:25 1016 30 845 24.95 11.9 53.4 79 8.3 46.9
05:30 1016 30 845 24.95 11.9 53.4 78 8.2 46.7
05:35 1016 30 845 24.95 12 53.7 77 8.1 46.5
05:40 1017 30.03 846 24.98 12.2 53.9 77 8.3 47
05:45 1018 30.06 847 25.01 12.5 54.4 78 8.8 47.9
05:50 1018 30.06 847 25.01 12.3 54.2 85 9.9 49.8
05:55 1018 30.06 847 25.01 11.9 53.5 89 10.1 50.2
06:00 1018 30.06 847 25.01 11.9 53.4 89 10.2 50.3
06:05 1017 30.03 847 25.01 12 53.7 89 10.2 50.4
06:10 1017 30.03 846 24.98 11.8 53.2 91 10.4 50.6
06:15 1017 30.03 846 24.98 11.6 52.9 92 10.3 50.6
06:20 1016 30 846 24.98 11.5 52.6 93 10.3 50.6
06:25 1016 30 845 24.95 11.4 52.5 93 10.3 50.5
06:30 1016 30 845 24.95 11.8 53.2 91 10.4 50.7
06:35 1016 30 845 24.95 12.1 53.9 89 10.3 50.6
06:40 1016 30 845 24.95 12.3 54.2 88 10.3 50.6
06:45 1016 30 845 24.95 12.4 54.3 86 10.2 50.4
06:50 1016 30 845 24.95 12.5 54.6 86 10.3 50.6
06:55 1016 30 845 24.95 13 55.3 83 10.1 50.2
07:00 1016 30 845 24.95 13.1 55.5 82 10.2 50.3
07:05 1016 30 845 24.95 13 55.4 82 10 49.9
07:10 1015 29.97 845 24.95 13.2 55.7 77 9.3 48.7
07:15 1015 29.97 845 24.95 13.5 56.2 73 8.7 47.7
07:20 1015 29.97 844 24.92 13.9 57.1 73 9.2 48.6
07:25 1015 29.97 844 24.92 14.2 57.6 71 9 48.3
07:30 1015 29.97 844 24.92 14.8 58.6 70 9.4 49
07:35 1015 29.97 844 24.92 15.1 59.1 67 9.1 48.4
07:40 1015 29.97 844 24.92 14.8 58.7 68 9 48.2
07:45 1015 29.97 844 24.92 14.7 58.4 69 9.2 48.5
07:50 1015 29.97 844 24.92 14.9 58.8 68 9.2 48.6
07:55 1015 29.97 844 24.92 15.2 59.3 66 9 48.2
08:00 1015 29.97 845 24.95 15.8 60.4 64 9 48.2
08:05 1015 29.97 845 24.95 16.6 61.9 62 9.5 49.1
08:10 1015 29.97 845 24.95 16.8 62.2 64 10 50
08:15 1015 29.97 845 24.95 16.4 61.6 63 9.4 49
08:20 1015 29.97 845 24.95 17 62.6 61 9.5 49.2
08:25 1015 29.97 845 24.95 17.1 62.8 59 9.1 48.3
08:30 1015 29.97 845 24.95 17.5 63.6 56 8.6 47.6
08:35 1015 29.97 845 24.95 18.5 65.2 53 8.9 48
08:40 1015 29.97 845 24.95 18.6 65.6 51 8.4 47.1
08:45 1016 30 845 24.95 18.4 65.2 51 8.3 47
08:50 1016 30 845 24.95 18.4 65.2 52 8.6 47.5
08:55 1016 30 845 24.95 18.5 65.2 51 8.2 46.8
09:00 1016 30 845 24.95 18.9 65.9 49 8.2 46.7
09:05 1016 30 845 24.95 19 66.2 49 8.2 46.8
09:10 1016 30 845 24.95 19 66.2 52 9.1 48.3
09:15 1016 30 845 24.95 18.8 65.8 52 9 48.2
09:20 1016 30 845 24.95 18.8 65.8 62 11.5 52.6
09:25 1016 30 845 24.95 18.1 64.7 67 12 53.7
09:30 1016 30 845 24.95 16.9 62.4 67 10.7 51.3
09:35 1016 30 845 24.95 16.9 62.4 68 11 51.8
09:40 1016 30 845 24.95 16.5 61.7 68 10.7 51.2
09:45 1016 30 845 24.95 16.6 61.9 67 10.5 51
09:50 1016 30 845 24.95 16.4 61.6 67 10.5 50.8
09:55 1016 30 845 24.95 16 60.8 69 10.5 50.9
10:00 1016 30 845 24.95 15.9 60.6 68 10.2 50.3
10:05 1016 30 845 24.95 16.1 60.9 68 10.2 50.3
10:10 1016 30 845 24.95 16.6 61.9 63 9.5 49.2
10:15 1016 30 845 24.95 17.5 63.5 59 9.5 49
10:20 1016 30 845 24.95 17.7 63.8 61 10.1 50.2
10:25 1016 30 845 24.95 17.6 63.6 60 9.9 49.7
10:30 1016 30 845 24.95 18 64.4 57 9.4 48.8
10:35 1016 30 845 24.95 18.4 65.2 55 9.4 48.9
10:40 1016 30 845 24.95 18.2 64.7 56 9.3 48.8
10:45 1015 29.97 845 24.95 18.3 64.9 56 9.4 48.9
10:50 1015 29.97 845 24.95 18.7 65.7 53 9.1 48.3
10:55 1015 29.97 845 24.95 19.1 66.4 52 9.3 48.7
11:00 1015 29.97 845 24.95 18.5 65.3 54 9.1 48.4
11:05 1015 29.97 845 24.95 18.8 65.8 55 9.7 49.4
11:10 1015 29.97 845 24.95 17.8 64.1 55 8.8 47.8
11:15 1015 29.97 844 24.92 18.3 64.9 55 9.3 48.8
11:20 1015 29.97 844 24.92 18.3 65 56 9.5 49.1
11:25 1015 29.97 844 24.92 19 66.2 51 8.7 47.7
11:30 1015 29.97 844 24.92 18.9 66 54 9.4 48.9
11:35 1015 29.97 844 24.92 18 64.5 56 9.2 48.6
11:40 1015 29.97 844 24.92 18.1 64.6 54 8.8 47.9
11:45 1015 29.97 844 24.92 19 66.2 51 8.8 47.8
11:50 1015 29.97 844 24.92 19.7 67.4 51 9.5 49.1
11:55 1015 29.97 844 24.92 19.7 67.4 52 9.6 49.3
12:00 1015 29.97 844 24.92 20.2 68.3 50 9.5 49.1
12:05 1015 29.97 844 24.92 20.8 69.4 49 9.7 49.5
12:10 1015 29.97 844 24.92 20.5 69 48 9.3 48.7
12:15 1015 29.97 844 24.92 20.2 68.3 51 9.9 49.9
12:20 1015 29.97 844 24.92 19.8 67.6 51 9.4 48.9
12:25 1015 29.97 844 24.92 19.7 67.4 52 9.8 49.6
12:30 1015 29.97 844 24.92 19.8 67.7 52 9.9 49.8
12:35 1015 29.97 844 24.92 19.4 67 52 9.3 48.8
12:40 1015 29.97 844 24.92 20.1 68.2 51 9.8 49.7
12:45 1015 29.97 844 24.92 19.6 67.2 54 10 50.1
12:50 1015 29.97 844 24.92 19.7 67.4 51 9.3 48.7
12:55 1015 29.97 844 24.92 20.1 68.1 52 10.1 50.2
13:00 1015 29.97 844 24.92 19 66.1 53 9.2 48.5
13:05 1015 29.97 844 24.92 19.3 66.7 52 9.2 48.5
13:10 1015 29.97 844 24.92 18.9 65.9 53 9.3 48.7
13:15 1015 29.97 844 24.92 18.7 65.7 54 9.4 49
13:20 1015 29.97 844 24.92 18.8 65.8 53 9.2 48.6
13:25 1015 29.97 844 24.92 18.9 66.1 54 9.5 49.1
13:30 1015 29.97 844 24.92 18.7 65.7 52 8.8 47.8
13:35 1015 29.97 844 24.92 19.4 67 49 8.6 47.6
13:40 1015 29.97 844 24.92 19.4 66.9 49 8.6 47.4
13:45 1015 29.97 844 24.92 19.9 67.8 49 9.1 48.4
13:50 1015 29.97 844 24.92 19.5 67.1 53 9.7 49.4
13:55 1015 29.97 844 24.92 18.9 66 55 9.7 49.5
14:00 1015 29.97 844 24.92 18.3 64.9 57 9.6 49.3
14:05 1015 29.97 844 24.92 17.7 63.9 61 10.3 50.5
14:10 1015 29.97 845 24.95 16.7 62.1 67 10.7 51.3
14:15 1016 30 845 24.95 16.1 61 66 9.8 49.7
14:20 1016 30 845 24.95 15.7 60.2 68 9.8 49.6
14:25 1015 29.97 845 24.95 15.9 60.6 66 9.6 49.4
14:30 1016 30 845 24.95 15.8 60.4 65 9.3 48.7
14:35 1016 30 845 24.95 15.3 59.5 63 8.4 47.1
14:40 1016 30 845 24.95 14.7 58.4 66 8.5 47.3
14:45 1016 30 845 24.95 14.3 57.8 68 8.5 47.3
14:50 1016 30 846 24.98 13.9 57.1 67 7.9 46.2
14:55 1016 30 846 24.98 13.1 55.7 68 7.3 45.2
15:00 1016 30 846 24.98 12.7 54.9 71 7.7 45.8
15:05 1017 30.03 846 24.98 12.5 54.4 73 7.8 46
15:10 1017 30.03 846 24.98 11.9 53.3 76 7.8 46.1
15:15 1017 30.03 846 24.98 11.2 52.2 79 7.7 45.8
15:20 1018 30.06 847 25.01 10.8 51.4 78 7.1 44.8
15:25 1018 30.06 847 25.01 10.6 51.1 80 7.3 45.2
15:30 1018 30.06 847 25.01 10.5 50.9 81 7.5 45.5
15:35 1017 30.03 846 24.98 10.4 50.6 84 7.8 46.1
15:40 1018 30.06 847 25.01 10.1 50.2 85 7.8 46
15:45 1018 30.06 847 25.01 9.5 49 87 7.4 45.3
15:50 1018 30.06 847 25.01 9.4 48.9 87 7.3 45.1
15:55 1018 30.06 847 25.01 9.5 49.1 85 7.1 44.8
16:00 1018 30.06 847 25.01 9.6 49.4 85 7.2 45
16:05 1018 30.06 847 25.01 10 50 84 7.5 45.5
16:10 1018 30.06 847 25.01 10.2 50.3 83 7.5 45.5
16:15 1018 30.06 847 25.01 10.1 50.1 83 7.4 45.3
16:20 1018 30.06 848 25.04 10.5 50.9 82 7.5 45.5
16:25 1019 30.09 848 25.04 10.6 51 81 7.5 45.6
16:30 1018 30.06 848 25.04 10.6 51.1 82 7.8 46
16:35 1018 30.06 847 25.01 10.9 51.6 82 8 46.3
16:40 1018 30.06 847 25.01 11.1 51.9 79 7.6 45.7
16:45 1018 30.06 847 25.01 11 51.8 79 7.6 45.6
16:50 1017 30.03 847 25.01 11.3 52.3 79 7.7 45.9
16:55 1017 30.03 847 25.01 11.6 52.9 77 7.7 45.8
17:00 1017 30.03 847 25.01 11.6 53 78 7.9 46.3
17:05 1017 30.03 847 25.01 11.8 53.3 73 7.1 44.8
17:10 1018 30.06 847 25.01 12.4 54.2 72 7.4 45.4
17:15 1017 30.03 847 25.01 12.1 53.9 71 7 44.6
17:20 1017 30.03 847 25.01 12.1 53.8 72 7.2 45
17:25 1017 30.03 846 24.98 11.9 53.4 74 7.4 45.3
17:30 1017 30.03 846 24.98 11.5 52.7 74 7 44.6
17:35 1017 30.03 846 24.98 11.4 52.5 75 7 44.7
17:40 1017 30.03 846 24.98 11.2 52.2 76 7.1 44.9
17:45 1017 30.03 846 24.98 11.2 52.2 76 7.2 44.9
17:50 1017 30.03 846 24.98 11.1 52 76 7 44.6
17:55 1017 30.03 846 24.98 11 51.8 73 6.4 43.6
18:00 1017 30.03 847 25.01 10.8 51.4 74 6.4 43.5
18:05 1017 30.03 847 25.01 10.6 51.1 75 6.3 43.3
18:10 1017 30.03 847 25.01 10.6 51 76 6.5 43.7
18:15 1018 30.06 847 25.01 10.6 51.1 76 6.6 43.9
18:20 1018 30.06 847 25.01 10.6 51 76 6.5 43.8
18:25 1018 30.06 847 25.01 10.4 50.8 76 6.4 43.6
18:30 1018 30.06 847 25.01 10.4 50.8 77 6.7 44
18:35 1018 30.06 847 25.01 10.5 50.9 78 6.8 44.2
18:40 1018 30.06 847 25.01 10.4 50.8 77 6.6 44
18:45 1018 30.06 847 25.01 10.4 50.8 77 6.6 44
18:50 1018 30.06 847 25.01 10.5 51 77 6.7 44.1
18:55 1018 30.06 847 25.01 10.5 50.8 78 6.8 44.3
19:00 1018 30.06 848 25.04 10.3 50.5 79 6.8 44.2
19:05 1018 30.06 847 25.01 10.2 50.4 78 6.6 43.9
19:10 1018 30.06 848 25.04 10.2 50.4 77 6.4 43.5
19:15 1019 30.09 848 25.04 10.2 50.4 76 6.2 43.2
19:20 1019 30.09 848 25.04 10.2 50.4 78 6.5 43.7
19:25 1019 30.09 848 25.04 10 50 80 6.8 44.3
19:30 1019 30.09 848 25.04 9.7 49.4 85 7.2 45
19:35 1019 30.09 848 25.04 9.4 48.9 87 7.4 45.2
19:40 1019 30.09 849 25.07 9.1 48.4 89 7.3 45.2
19:45 1020 30.12 849 25.07 9 48.2 90 7.4 45.3
19:50 1020 30.12 849 25.07 9 48.2 90 7.4 45.3
19:55 1020 30.12 849 25.07 9 48.1 87 7 44.6
20:00 1020 30.12 849 25.07 8.9 47.9 87 6.9 44.3
20:05 1020 30.12 849 25.07 8.6 47.5 87 6.6 43.9
20:10 1020 30.12 849 25.07 8.5 47.2 86 6.3 43.3
20:15 1020 30.12 849 25.07 8.4 47.1 87 6.3 43.4
20:20 1020 30.12 850 25.1 8.4 47.1 87 6.4 43.5
20:25 1021 30.15 850 25.1 8.4 47 87 6.4 43.4
20:30 1021 30.15 850 25.1 8.3 47 88 6.5 43.6
20:35 1021 30.15 850 25.1 8.1 46.6 88 6.3 43.4
20:40 1021 30.15 850 25.1 8 46.3 86 5.7 42.3
20:45 1020 30.12 849 25.07 7.9 46.1 88 6 42.8
20:50 1020 30.12 849 25.07 7.6 45.7 89 5.9 42.6
20:55 1020 30.12 849 25.07 7.7 45.8 90 6.1 43
21:00 1020 30.12 849 25.07 7.7 45.8 90 6.1 43.1
21:05 1020 30.12 849 25.07 7.6 45.7 90 6.2 43.1
21:10 1020 30.12 849 25.07 7.5 45.6 89 5.9 42.6
21:15 1020 30.12 849 25.07 7.6 45.6 89 5.9 42.7
21:20 1020 30.12 849 25.07 7.7 45.8 89 6 42.7
21:25 1020 30.12 849 25.07 7.7 45.8 90 6.2 43.2
21:30 1020 30.12 849 25.07 7.7 45.8 91 6.2 43.2
21:35 1020 30.12 849 25.07 7.6 45.7 91 6.2 43.1
21:40 1020 30.12 849 25.07 7.8 46.1 89 6.2 43.1
21:45 1020 30.12 850 25.1 7.9 46.1 88 5.9 42.7
21:50 1021 30.15 850 25.1 7.8 46.1 87 5.9 42.5
21:55 1021 30.15 850 25.1 7.7 45.9 88 5.8 42.5
22:00 1021 30.15 850 25.1 7.7 45.8 90 6.1 42.9
22:05 1021 30.15 850 25.1 7.7 45.9 90 6.3 43.3
22:10 1021 30.15 850 25.1 7.6 45.8 89 5.9 42.6
22:15 1021 30.15 850 25.1 7.5 45.5 86 5.3 41.5
22:20 1020 30.12 850 25.1 7.3 45.1 88 5.4 41.7
22:25 1020 30.12 850 25.1 7.1 44.9 87 5.1 41.2
22:30 1021 30.15 850 25.1 7.1 44.7 89 5.3 41.5
22:35 1021 30.15 850 25.1 7.1 44.8 88 5.3 41.6
22:40 1021 30.15 850 25.1 7.2 44.9 87 5.2 41.3
22:45 1021 30.15 850 25.1 7.3 45.1 85 5 40.9
22:50 1020 30.12 850 25.1 7.3 45.2 86 5.1 41.2
22:55 1020 30.12 850 25.1 7.3 45.2 85 5.1 41.1
23:00 1020 30.12 850 25.1 7.3 45.2 86 5.1 41.2
23:05 1020 30.12 849 25.07 7.3 45.2 88 5.4 41.8
23:10 1020 30.12 849 25.07 7.3 45.2 90 5.8 42.4
23:15 1020 30.12 849 25.07 7.3 45.2 91 5.9 42.6
23:20 1020 30.12 850 25.1 7.2 45 90 5.7 42.3
23:25 1020 30.12 849 25.07 7.2 44.9 91 5.9 42.5
23:30 1020 30.12 849 25.07 7.1 44.8 91 5.8 42.4
23:35 1020 30.12 849 25.07 6.9 44.4 91 5.5 41.9
23:40 1020 30.12 849 25.07 6.9 44.4 92 5.6 42.1
23:45 1020 30.12 849 25.07 6.9 44.5 91 5.6 42.1
23:50 1020 30.12 849 25.07 7 44.5 90 5.4 41.7
23:55 1019 30.09 849 25.07 7 44.6 91 5.6 42
24:00 1019 30.09 849 25.07 7 44.5 91 5.6 42.1